sensor_id;sensor_type;location;lat;lon;timestamp;pressure;altitude;pressure_sealevel;temperature;humidity
46756;BME280;32506;52.826;-1.192;2023-08-12T22:06:02;100512.34;;;17.87;57.92
46756;BME280;32506;52.826;-1.192;2023-08-12T22:08:28;100507.28;;;17.96;58.22
46756;BME280;32506;52.826;-1.192;2023-08-12T22:10:53;100515.72;;;18.10;57.80
46756;BME280;32506;52.826;-1.192;2023-08-12T22:13:19;100513.84;;;18.21;57.61
46756;BME280;32506;52.826;-1.192;2023-08-12T22:15:44;100520.38;;;18.30;57.85
46756;BME280;32506;52.826;-1.192;2023-08-12T22:18:10;100503.91;;;18.37;57.74
46756;BME280;32506;52.826;-1.192;2023-08-12T22:20:36;100507.19;;;18.44;57.25
46756;BME280;32506;52.826;-1.192;2023-08-12T22:23:01;100512.63;;;18.49;57.15
46756;BME280;32506;52.826;-1.192;2023-08-12T22:25:27;100515.56;;;18.53;56.81
46756;BME280;32506;52.826;-1.192;2023-08-12T22:27:52;100512.34;;;18.56;57.00
46756;BME280;32506;52.826;-1.192;2023-08-12T22:30:18;100503.97;;;18.57;56.96
46756;BME280;32506;52.826;-1.192;2023-08-12T22:32:43;100516.38;;;18.58;56.96
46756;BME280;32506;52.826;-1.192;2023-08-12T22:35:09;100512.59;;;18.59;56.54
46756;BME280;32506;52.826;-1.192;2023-08-12T22:37:35;100518.84;;;18.60;56.49
46756;BME280;32506;52.826;-1.192;2023-08-12T22:40:01;100522.09;;;18.62;56.13
46756;BME280;32506;52.826;-1.192;2023-08-12T22:42:26;100510.72;;;18.60;55.92
46756;BME280;32506;52.826;-1.192;2023-08-12T22:44:51;100508.84;;;18.60;55.97
46756;BME280;32506;52.826;-1.192;2023-08-12T22:47:17;100509.91;;;18.59;55.94
46756;BME280;32506;52.826;-1.192;2023-08-12T22:49:42;100510.97;;;18.58;55.85
46756;BME280;32506;52.826;-1.192;2023-08-12T22:52:08;100508.53;;;18.57;55.91
46756;BME280;32506;52.826;-1.192;2023-08-12T22:54:33;100511.53;;;18.55;55.93
46756;BME280;32506;52.826;-1.192;2023-08-12T22:56:59;100515.31;;;18.54;55.69
46756;BME280;32506;52.826;-1.192;2023-08-12T22:59:25;100506.66;;;18.52;55.68
46756;BME280;32506;52.826;-1.192;2023-08-12T23:01:50;100506.38;;;18.49;55.65
46756;BME280;32506;52.826;-1.192;2023-08-12T23:04:16;100505.84;;;18.47;55.36
46756;BME280;32506;52.826;-1.192;2023-08-12T23:06:41;100506.09;;;18.45;55.33
46756;BME280;32506;52.826;-1.192;2023-08-12T23:09:06;100506.63;;;18.42;55.18
46756;BME280;32506;52.826;-1.192;2023-08-12T23:11:32;100508.81;;;18.40;54.72
46756;BME280;32506;52.826;-1.192;2023-08-12T23:13:57;100503.09;;;18.36;54.61
46756;BME280;32506;52.826;-1.192;2023-08-12T23:16:23;100517.16;;;18.33;54.45
46756;BME280;32506;52.826;-1.192;2023-08-12T23:18:50;100514.19;;;18.30;54.58
46756;BME280;32506;52.826;-1.192;2023-08-12T23:21:15;100514.72;;;18.26;54.77
46756;BME280;32506;52.826;-1.192;2023-08-12T23:23:41;100516.06;;;18.24;54.73
46756;BME280;32506;52.826;-1.192;2023-08-12T23:26:06;100513.06;;;18.20;54.69
46756;BME280;32506;52.826;-1.192;2023-08-12T23:28:32;100511.69;;;18.18;54.73
46756;BME280;32506;52.826;-1.192;2023-08-12T23:30:57;100504.91;;;18.15;55.03
46756;BME280;32506;52.826;-1.192;2023-08-12T23:33:23;100508.44;;;18.10;55.10
46756;BME280;32506;52.826;-1.192;2023-08-12T23:35:49;100512.47;;;18.08;54.98
46756;BME280;32506;52.826;-1.192;2023-08-12T23:38:14;100510.31;;;18.05;54.98
46756;BME280;32506;52.826;-1.192;2023-08-12T23:40:40;100508.94;;;18.02;55.09
46756;BME280;32506;52.826;-1.192;2023-08-12T23:43:05;100510.56;;;17.98;55.14
46756;BME280;32506;52.826;-1.192;2023-08-12T23:45:31;100513.75;;;17.95;55.50
46756;BME280;32506;52.826;-1.192;2023-08-12T23:47:56;100509.69;;;17.92;55.57
46756;BME280;32506;52.826;-1.192;2023-08-12T23:50:22;100514.53;;;17.90;56.02
46756;BME280;32506;52.826;-1.192;2023-08-12T23:52:47;100516.94;;;17.87;56.21
46756;BME280;32506;52.826;-1.192;2023-08-12T23:55:12;100511.00;;;17.85;56.02
46756;BME280;32506;52.826;-1.192;2023-08-12T23:57:38;100512.34;;;17.82;55.81
